Time;durP1;ratioP1;P1;durP2;ratioP2;P2;SDS_P1;SDS_P2;PMS_P1;PMS_P2;Temp;Humidity;BMP_temperature;BMP_pressure;BME280_temperature;BME280_humidity;BME280_pressure;Samples;Min_cycle;Max_cycle;Signal;HPM_P1;HPM_P2
2022/08/29 00:01:11;;;;;;;32.38;20.40;;;;;;;20.86;45.60;99667.59;5093875;28;20522;-77
2022/08/29 00:03:39;;;;;;;30.02;18.90;;;;;;;20.67;45.80;99635.66;5093819;28;20113;-77
2022/08/29 00:06:07;;;;;;;29.98;20.55;;;;;;;20.80;45.83;99662.53;5094515;28;20097;-76
2022/08/29 00:08:34;;;;;;;29.23;17.90;;;;;;;20.85;45.89;99672.06;5075744;28;20518;-76
2022/08/29 00:11:01;;;;;;;27.25;17.92;;;;;;;20.82;45.83;99653.63;5093592;28;20143;-77
2022/08/29 00:13:28;;;;;;;29.08;18.40;;;;;;;20.78;46.22;99662.63;5093624;28;20115;-76
2022/08/29 00:15:55;;;;;;;29.25;19.25;;;;;;;20.75;46.18;99649.47;5093543;28;20097;-77
2022/08/29 00:18:22;;;;;;;29.08;19.77;;;;;;;20.70;46.33;99646.16;5093564;28;20052;-78
2022/08/29 00:20:50;;;;;;;27.73;17.83;;;;;;;20.69;46.43;99644.41;5093046;28;20048;-77
2022/08/29 00:23:17;;;;;;;27.73;18.73;;;;;;;20.68;46.67;99636.53;5095344;28;20048;-76
2022/08/29 00:25:45;;;;;;;30.10;18.33;;;;;;;20.61;47.00;99626.19;5083632;28;20461;-76
2022/08/29 00:28:12;;;;;;;29.77;18.25;;;;;;;20.65;46.90;99624.28;5103559;28;20072;-78
2022/08/29 00:30:39;;;;;;;30.27;18.60;;;;;;;20.41;47.21;99583.66;5106176;28;20060;-78
2022/08/29 00:33:07;;;;;;;29.08;18.73;;;;;;;20.55;47.47;99618.44;5095194;28;20052;-76
2022/08/29 00:35:37;;;;;;;31.73;18.60;;;;;;;20.52;47.50;99618.56;5092989;28;20415;-77
2022/08/29 00:38:08;;;;;;;28.10;19.38;;;;;;;20.42;47.95;99609.25;5092958;28;20160;-77
2022/08/29 00:40:44;;;;;;;33.33;20.35;;;;;;;20.33;47.98;99607.00;5092857;28;20056;-77
2022/08/29 00:43:31;;;;;;;29.92;18.63;;;;;;;20.25;48.38;99602.84;5092931;28;20492;-77
2022/08/29 00:46:16;;;;;;;30.63;18.95;;;;;;;20.22;48.46;99604.78;5092945;28;20048;-76
2022/08/29 00:48:52;;;;;;;26.90;18.48;;;;;;;20.07;48.59;99571.78;5075198;28;20052;-76
2022/08/29 00:51:21;;;;;;;29.75;19.35;;;;;;;20.21;48.86;99572.06;5092996;28;20117;-76
2022/08/29 00:53:59;;;;;;;30.58;20.52;;;;;;;20.23;48.87;99583.47;5092718;28;20072;-76
2022/08/29 00:56:28;;;;;;;29.17;19.15;;;;;;;20.20;48.86;99575.66;5092745;28;20055;-76
2022/08/29 00:59:18;;;;;;;27.30;17.42;;;;;;;20.15;48.86;99579.41;5092250;28;20109;-76
2022/08/29 01:01:46;;;;;;;29.88;18.73;;;;;;;20.14;49.21;99573.25;5092695;28;20051;-76
2022/08/29 01:04:13;;;;;;;29.42;18.23;;;;;;;20.17;49.22;99572.25;5092617;28;20055;-77
2022/08/29 01:06:52;;;;;;;31.45;19.73;;;;;;;20.12;48.97;99558.34;5092656;28;20052;-77
2022/08/29 01:09:19;;;;;;;31.05;18.40;;;;;;;20.20;49.16;99559.75;5074447;28;20113;-76
2022/08/29 01:14:33;;;;;;;35.00;17.30;;;;;;;20.28;48.89;99540.84;5092871;28;20518;-76
2022/08/29 01:17:08;;;;;;;26.92;17.27;;;;;;;20.27;49.21;99531.19;5092499;28;20052;-76
2022/08/29 01:19:52;;;;;;;25.95;16.23;;;;;;;20.23;49.04;99532.25;5092695;28;20139;-76
2022/08/29 01:22:50;;;;;;;25.88;16.75;;;;;;;20.27;48.91;99530.34;5092599;28;20052;-76
2022/08/29 01:25:21;;;;;;;27.83;17.00;;;;;;;20.25;49.02;99519.78;5092754;28;20075;-77
2022/08/29 01:27:58;;;;;;;30.67;17.23;;;;;;;20.31;49.09;99531.94;5091652;28;20063;-76
2022/08/29 01:30:26;;;;;;;27.10;17.45;;;;;;;20.28;49.04;99521.44;5092610;28;20051;-77
2022/08/29 01:32:56;;;;;;;27.42;16.65;;;;;;;20.30;49.05;99530.19;5092315;28;20087;-78
2022/08/29 01:35:24;;;;;;;26.65;17.25;;;;;;;20.14;48.90;99498.16;5092600;28;20049;-76
2022/08/29 01:37:51;;;;;;;29.90;17.52;;;;;;;20.31;48.89;99532.78;5092438;28;20086;-76
2022/08/29 01:40:18;;;;;;;24.38;16.38;;;;;;;20.29;49.11;99528.47;5092248;28;20052;-76
2022/08/29 01:42:45;;;;;;;25.98;17.20;;;;;;;20.17;49.03;99488.25;5091912;28;20574;-76
2022/08/29 01:45:13;;;;;;;26.10;16.17;;;;;;;20.30;49.21;99501.00;5092136;28;20105;-77
2022/08/29 01:47:40;;;;;;;26.13;16.67;;;;;;;20.21;49.30;99481.06;5092373;28;20083;-77
2022/08/29 01:50:13;;;;;;;25.98;16.67;;;;;;;20.21;49.38;99524.34;5092180;28;20063;-76
2022/08/29 01:52:41;;;;;;;26.40;16.75;;;;;;;20.21;49.05;99513.72;5074358;28;20064;-77
2022/08/29 01:55:09;;;;;;;30.95;17.45;;;;;;;20.24;49.15;99497.72;5092171;28;20048;-77
2022/08/29 01:57:38;;;;;;;29.30;17.17;;;;;;;20.24;49.10;99503.00;5095443;28;20508;-77
2022/08/29 02:00:08;;;;;;;30.73;16.70;;;;;;;20.24;49.16;99504.78;5096101;28;20064;-76
2022/08/29 02:02:37;;;;;;;23.55;15.30;;;;;;;20.29;49.12;99501.97;5100662;28;20109;-78
2022/08/29 02:05:07;;;;;;;30.02;16.70;;;;;;;20.33;48.92;99493.81;5079644;28;20412;-77
2022/08/29 02:07:34;;;;;;;31.40;16.25;;;;;;;20.15;48.64;99450.34;5096863;28;20147;-77
2022/08/29 02:10:02;;;;;;;30.98;17.13;;;;;;;20.41;48.67;99482.84;5095791;28;20435;-77
2022/08/29 02:12:30;;;;;;;24.02;15.73;;;;;;;20.42;48.63;99495.19;5096705;28;20063;-78
2022/08/29 02:14:58;;;;;;;27.33;16.90;;;;;;;20.45;48.63;99468.53;5077648;28;20468;-77
2022/08/29 02:17:25;;;;;;;28.48;17.63;;;;;;;19.99;48.57;99404.22;5095742;28;20067;-77
2022/08/29 02:19:52;;;;;;;29.95;17.45;;;;;;;20.48;48.42;99464.88;5077810;28;20427;-77
2022/08/29 02:22:20;;;;;;;27.73;17.50;;;;;;;20.50;48.39;99463.91;5095370;28;20052;-78
2022/08/29 02:24:47;;;;;;;29.35;18.60;;;;;;;20.50;48.26;99449.75;5095794;28;20156;-77
2022/08/29 02:27:14;;;;;;;26.00;17.08;;;;;;;20.54;48.33;99475.22;5095327;28;20056;-76
2022/08/29 02:29:41;;;;;;;27.60;17.17;;;;;;;20.61;48.15;99479.38;5095737;28;20048;-76
2022/08/29 02:32:11;;;;;;;34.00;18.45;;;;;;;20.54;47.97;99443.38;5095241;28;20048;-76
2022/08/29 02:34:39;;;;;;;26.05;17.35;;;;;;;20.63;47.60;99462.47;5095363;28;20044;-77
2022/08/29 02:37:11;;;;;;;28.95;17.38;;;;;;;20.71;47.85;99480.69;5095310;28;20142;-77
2022/08/29 02:39:38;;;;;;;29.45;18.15;;;;;;;20.64;47.82;99474.78;5095406;28;20147;-77
2022/08/29 02:42:05;;;;;;;28.38;18.02;;;;;;;20.50;47.84;99442.69;5095083;28;20060;-77
2022/08/29 02:44:33;;;;;;;29.83;18.45;;;;;;;20.78;47.73;99475.94;5095124;28;20047;-77
2022/08/29 02:47:00;;;;;;;30.30;19.10;;;;;;;20.84;47.25;99468.59;5094968;28;20416;-78
2022/08/29 02:49:27;;;;;;;27.15;17.25;;;;;;;20.83;47.34;99461.56;5094976;28;20083;-77
2022/08/29 02:51:55;;;;;;;27.35;16.80;;;;;;;20.86;47.26;99463.22;5095135;28;20083;-76
2022/08/29 02:54:23;;;;;;;30.85;17.50;;;;;;;20.88;47.49;99452.53;5095206;28;20052;-77
2022/08/29 02:56:50;;;;;;;24.90;16.40;;;;;;;20.90;47.52;99459.47;5095009;28;20084;-76
2022/08/29 02:59:17;;;;;;;26.65;16.52;;;;;;;20.88;47.45;99471.97;5094866;28;20060;-77
2022/08/29 03:01:44;;;;;;;25.75;17.45;;;;;;;20.89;47.53;99467.50;5094699;28;20059;-77
2022/08/29 03:04:11;;;;;;;26.17;16.23;;;;;;;20.84;47.55;99459.75;5094389;28;20570;-76
2022/08/29 03:06:38;;;;;;;27.60;17.48;;;;;;;20.95;47.39;99477.84;5094480;28;20063;-76
2022/08/29 03:09:05;;;;;;;23.67;17.02;;;;;;;20.89;47.39;99478.13;5094373;28;20117;-76
2022/08/29 03:11:32;;;;;;;31.92;17.38;;;;;;;20.89;47.14;99468.41;5094860;28;20044;-75
2022/08/29 03:14:00;;;;;;;28.10;18.77;;;;;;;20.77;47.41;99439.75;5094785;28;20052;-76
2022/08/29 03:16:28;;;;;;;28.02;17.30;;;;;;;20.91;47.42;99471.84;5094753;28;20087;-76
2022/08/29 03:18:55;;;;;;;30.23;19.55;;;;;;;20.96;47.35;99468.97;5094491;28;20058;-76
2022/08/29 03:21:25;;;;;;;31.20;20.10;;;;;;;21.03;47.08;99462.44;5094351;28;20063;-76
2022/08/29 03:23:54;;;;;;;28.77;19.27;;;;;;;21.03;47.08;99459.78;5094109;28;20520;-77
2022/08/29 03:26:22;;;;;;;35.03;19.95;;;;;;;21.02;47.10;99472.22;5094127;28;20148;-77
2022/08/29 03:28:50;;;;;;;35.00;20.38;;;;;;;21.02;47.32;99463.38;5094502;28;20176;-76
2022/08/29 03:31:17;;;;;;;39.80;23.05;;;;;;;21.01;47.17;99456.34;5094210;28;20056;-77
2022/08/29 03:33:44;;;;;;;33.13;20.85;;;;;;;20.98;47.20;99452.03;5094266;28;20240;-77
2022/08/29 03:36:11;;;;;;;35.13;21.33;;;;;;;20.93;47.35;99431.94;5093998;28;20072;-77
2022/08/29 03:38:45;;;;;;;34.10;21.60;;;;;;;21.06;46.96;99451.69;5094237;28;20058;-77
2022/08/29 03:41:26;;;;;;;34.88;21.38;;;;;;;21.02;46.92;99434.19;5094537;28;20090;-77
2022/08/29 03:43:58;;;;;;;34.97;22.02;;;;;;;21.05;46.82;99424.25;5094100;28;20051;-78
2022/08/29 03:46:26;;;;;;;37.72;22.33;;;;;;;20.86;47.02;99381.81;5094207;28;20059;-78
2022/08/29 03:48:53;;;;;;;40.65;22.05;;;;;;;21.12;46.94;99419.50;5093966;28;20516;-76
2022/08/29 03:51:21;;;;;;;35.42;21.73;;;;;;;21.03;46.72;99380.97;5093865;28;20109;-77
2022/08/29 03:53:50;;;;;;;35.20;20.73;;;;;;;21.15;46.91;99392.84;5093911;28;20052;-78
2022/08/29 03:56:17;;;;;;;34.15;21.67;;;;;;;21.22;46.47;99390.75;5093630;28;20142;-76
2022/08/29 03:58:46;;;;;;;37.78;22.73;;;;;;;21.33;46.54;99396.41;5093313;28;20400;-78
2022/08/29 04:01:23;;;;;;;34.53;21.52;;;;;;;21.32;46.72;99412.44;5100154;28;20078;-80
2022/08/29 04:03:52;;;;;;;37.55;22.20;;;;;;;21.38;46.27;99410.34;5094166;28;20139;-81
2022/08/29 04:06:19;;;;;;;37.47;22.33;;;;;;;21.26;46.12;99363.97;5093869;28;20048;-77
2022/08/29 04:08:48;;;;;;;35.08;22.35;;;;;;;21.56;46.09;99403.28;5093892;28;20044;-78
2022/08/29 04:11:17;;;;;;;41.75;23.70;;;;;;;21.60;45.70;99399.53;5093682;28;20097;-78
2022/08/29 04:13:44;;;;;;;36.80;23.42;;;;;;;21.54;45.96;99396.34;5094030;28;20051;-78
2022/08/29 04:16:14;;;;;;;37.72;23.67;;;;;;;21.54;45.71;99388.34;5093713;28;20048;-78
2022/08/29 04:18:42;;;;;;;38.60;23.83;;;;;;;21.57;46.05;99382.88;5093708;28;20063;-78
2022/08/29 04:21:09;;;;;;;37.83;23.88;;;;;;;21.73;45.97;99398.94;5093655;28;20048;-77
2022/08/29 04:23:37;;;;;;;34.03;22.80;;;;;;;21.85;45.33;99387.66;5093439;28;20495;-76
2022/08/29 04:26:10;;;;;;;37.50;23.23;;;;;;;21.94;45.29;99384.56;5093017;28;20098;-77
2022/08/29 04:28:58;;;;;;;37.22;23.65;;;;;;;22.06;44.75;99381.25;5093147;28;20054;-78
2022/08/29 04:31:25;;;;;;;36.42;24.45;;;;;;;22.17;44.70;99379.84;5092880;28;20056;-78
2022/08/29 04:33:52;;;;;;;41.08;23.95;;;;;;;22.31;44.43;99381.84;5091960;28;20070;-78
2022/08/29 04:36:19;;;;;;;39.25;23.67;;;;;;;22.36;44.49;99382.44;5092827;28;20055;-77
2022/08/29 04:38:46;;;;;;;39.47;24.33;;;;;;;21.98;44.24;99300.16;5092958;28;20052;-79
2022/08/29 04:41:13;;;;;;;40.30;25.23;;;;;;;22.41;44.11;99388.38;5093235;28;20056;-78
2022/08/29 04:43:41;;;;;;;42.10;24.10;;;;;;;22.28;44.46;99397.03;5093114;28;20491;-78
2022/08/29 04:46:08;;;;;;;41.38;24.50;;;;;;;22.16;44.58;99415.38;5075093;28;20048;-78
2022/08/29 04:48:51;;;;;;;42.60;26.08;;;;;;;22.05;44.71;99389.34;5094149;28;20504;-79
2022/08/29 04:51:20;;;;;;;44.95;25.45;;;;;;;22.19;44.27;99402.75;5093699;28;20059;-78
2022/08/29 04:53:50;;;;;;;39.92;26.50;;;;;;;22.27;44.21;99405.94;5093815;28;20056;-78
2022/08/29 04:56:18;;;;;;;;;;;;;;;22.02;44.78;99393.00;5094000;28;20052;-78
2022/08/29 04:58:46;;;;;;;44.70;25.88;;;;;;;22.19;44.37;99408.09;5093207;28;20392;-77
2022/08/29 05:01:16;;;;;;;46.67;27.30;;;;;;;22.25;44.00;99375.88;5093338;28;20048;-78
2022/08/29 05:03:43;;;;;;;47.58;28.75;;;;;;;22.52;43.57;99407.31;5093525;28;20055;-78
2022/08/29 05:06:12;;;;;;;44.55;27.60;;;;;;;22.67;43.29;99386.97;5093126;28;20086;-78
2022/08/29 05:08:41;;;;;;;;;;;;;;;22.54;43.49;99381.44;5094006;28;20166;-78
2022/08/29 05:11:10;;;;;;;46.08;28.90;;;;;;;22.74;43.09;99385.72;5085662;28;19927;-78
2022/08/29 05:13:37;;;;;;;42.25;28.17;;;;;;;22.74;43.00;99367.09;5107668;28;20056;-79
2022/08/29 05:16:10;;;;;;;40.05;27.95;;;;;;;22.78;42.84;99389.06;5089724;28;20056;-78
2022/08/29 05:18:38;;;;;;;46.35;27.60;;;;;;;22.96;42.46;99382.72;5078202;28;20079;-79
2022/08/29 05:21:06;;;;;;;44.65;27.90;;;;;;;23.11;42.12;99399.69;5092394;28;20542;-77
2022/08/29 05:23:33;;;;;;;46.83;28.05;;;;;;;23.09;41.85;99389.13;5091340;28;20470;-78
2022/08/29 05:26:03;;;;;;;53.05;28.77;;;;;;;23.13;42.13;99387.16;5091948;28;20093;-80
2022/08/29 05:28:32;;;;;;;43.35;26.95;;;;;;;23.39;41.48;99383.00;5091576;28;20091;-78
2022/08/29 05:30:59;;;;;;;44.75;27.27;;;;;;;23.82;40.73;99359.22;5083802;28;20435;-76
2022/08/29 05:33:27;;;;;;;44.63;27.27;;;;;;;24.43;39.09;99375.13;5086723;28;20173;-78
2022/08/29 05:35:54;;;;;;;49.35;29.73;;;;;;;24.91;38.77;99379.25;5095438;28;20055;-77
2022/08/29 05:38:21;;;;;;;42.08;26.35;;;;;;;25.17;37.75;99347.34;5095045;28;20101;-77
2022/08/29 05:40:48;;;;;;;44.08;27.00;;;;;;;25.51;37.03;99378.09;5095403;28;20056;-78
2022/08/29 05:43:15;;;;;;;38.67;24.85;;;;;;;25.69;36.05;99375.16;5095293;28;20105;-80
2022/08/29 05:45:42;;;;;;;38.63;24.58;;;;;;;25.71;36.01;99359.84;5095248;28;20048;-79
2022/08/29 05:48:09;;;;;;;39.40;24.10;;;;;;;25.71;35.65;99354.50;5095158;28;20083;-77
2022/08/29 05:50:41;;;;;;;40.30;22.60;;;;;;;25.83;35.23;99345.63;5092606;28;20138;-77
2022/08/29 05:53:09;;;;;;;46.70;23.45;;;;;;;25.78;35.08;99337.06;5095193;28;20055;-78
2022/08/29 05:55:43;;;;;;;41.05;21.98;;;;;;;26.08;34.69;99342.19;5094617;28;20499;-77
2022/08/29 05:58:11;;;;;;;43.58;22.70;;;;;;;26.16;34.37;99349.69;5094913;28;20048;-78
2022/08/29 06:00:41;;;;;;;39.50;23.00;;;;;;;26.14;34.50;99346.25;5087307;28;20058;-78
2022/08/29 06:03:09;;;;;;;38.88;22.00;;;;;;;26.05;34.55;99350.44;5065746;28;20093;-77
2022/08/29 06:05:38;;;;;;;40.80;22.05;;;;;;;25.91;34.56;99356.72;5084049;28;20101;-77
2022/08/29 06:08:06;;;;;;;40.53;20.90;;;;;;;25.71;34.83;99351.84;5085556;28;20052;-77
2022/08/29 06:10:37;;;;;;;36.00;20.75;;;;;;;25.59;35.05;99356.19;5074192;28;20055;-77
2022/08/29 06:13:04;;;;;;;35.42;19.60;;;;;;;25.57;34.88;99360.75;5088167;28;20048;-78
2022/08/29 06:15:32;;;;;;;37.75;20.95;;;;;;;25.54;34.93;99377.03;5084106;28;20067;-77
2022/08/29 06:17:59;;;;;;;35.65;20.17;;;;;;;25.59;35.39;99382.06;5085323;28;20740;-77
2022/08/29 06:20:26;;;;;;;39.83;21.30;;;;;;;25.63;34.97;99379.09;5083343;28;20571;-78
2022/08/29 06:22:53;;;;;;;32.35;19.90;;;;;;;25.64;34.88;99342.50;5083882;28;20127;-77
2022/08/29 06:25:20;;;;;;;30.77;18.50;;;;;;;25.88;34.77;99361.41;5084656;28;20062;-78
2022/08/29 06:28:07;;;;;;;34.50;19.02;;;;;;;26.01;34.11;99342.72;5083023;28;20564;-77
2022/08/29 06:30:34;;;;;;;33.65;18.05;;;;;;;26.13;34.03;99353.41;5081178;28;20055;-77
2022/08/29 06:33:01;;;;;;;30.02;17.33;;;;;;;26.08;34.47;99368.94;5084952;28;20051;-77
2022/08/29 06:35:28;;;;;;;32.97;18.67;;;;;;;25.74;34.72;99338.25;5083427;28;20050;-77
2022/08/29 06:37:56;;;;;;;36.83;17.50;;;;;;;25.73;34.77;99382.88;5083349;28;20048;-76
2022/08/29 06:40:23;;;;;;;29.17;16.40;;;;;;;25.60;35.15;99375.75;5084330;28;20143;-77
2022/08/29 06:42:50;;;;;;;31.45;15.93;;;;;;;25.39;35.33;99394.09;5087410;28;20090;-77
2022/08/29 06:45:20;;;;;;;28.73;14.23;;;;;;;25.10;35.58;99360.25;5082444;28;20074;-77
2022/08/29 06:47:47;;;;;;;29.25;14.57;;;;;;;25.27;35.58;99377.00;5082872;28;20140;-77
2022/08/29 06:50:16;;;;;;;26.77;14.23;;;;;;;25.36;35.27;99389.81;5083170;28;20086;-77
2022/08/29 06:52:43;;;;;;;24.77;12.80;;;;;;;25.51;35.15;99366.50;5084879;28;20048;-77
2022/08/29 06:55:13;;;;;;;22.55;12.55;;;;;;;25.45;34.63;99332.19;5083299;28;20052;-76
2022/08/29 06:57:44;;;;;;;28.33;13.40;;;;;;;25.57;34.61;99359.91;5082383;28;20049;-78
2022/08/29 07:00:13;;;;;;;22.25;12.57;;;;;;;25.47;34.42;99331.13;5065771;28;20094;-77
2022/08/29 07:02:51;;;;;;;22.50;11.88;;;;;;;25.87;33.87;99365.03;5082371;28;20052;-78
2022/08/29 07:05:20;;;;;;;22.63;12.45;;;;;;;26.23;33.44;99355.47;5080106;28;20044;-78
2022/08/29 07:07:47;;;;;;;25.53;10.77;;;;;;;26.52;32.85;99346.25;5084328;28;20044;-78
2022/08/29 07:10:15;;;;;;;21.05;11.20;;;;;;;26.51;32.77;99363.28;5078684;28;20114;-79
2022/08/29 07:12:48;;;;;;;19.75;10.77;;;;;;;26.60;32.63;99383.22;5073076;28;20444;-78
2022/08/29 07:15:15;;;;;;;23.55;10.35;;;;;;;26.86;32.59;99375.16;5055435;28;20048;-78
2022/08/29 07:17:42;;;;;;;16.00;9.88;;;;;;;27.08;32.24;99369.97;5073423;28;20059;-80
2022/08/29 07:20:09;;;;;;;20.02;10.55;;;;;;;26.97;32.49;99367.19;5086755;28;20109;-77
2022/08/29 07:22:37;;;;;;;20.25;10.60;;;;;;;27.11;32.51;99388.50;5093230;28;20052;-78
2022/08/29 07:25:04;;;;;;;22.73;10.18;;;;;;;27.10;32.58;99389.47;5093085;28;20059;-76
2022/08/29 07:27:33;;;;;;;29.90;10.55;;;;;;;27.31;32.43;99378.16;5093292;28;20059;-77
2022/08/29 07:30:01;;;;;;;26.63;10.83;;;;;;;27.53;32.29;99390.84;5093382;28;20147;-78
2022/08/29 07:32:29;;;;;;;47.72;16.50;;;;;;;27.57;32.38;99401.22;5093313;28;20286;-76
2022/08/29 07:34:56;;;;;;;27.13;10.85;;;;;;;27.46;32.79;99386.91;5093265;28;20090;-78
2022/08/29 07:37:23;;;;;;;26.20;10.63;;;;;;;27.38;32.91;99384.78;5093243;28;20052;-77
2022/08/29 07:39:50;;;;;;;29.13;11.63;;;;;;;27.36;33.21;99400.13;5093033;28;20048;-76
2022/08/29 07:42:17;;;;;;;25.42;10.02;;;;;;;27.36;33.25;99384.03;5094265;28;20075;-79
2022/08/29 07:44:44;;;;;;;22.55;9.73;;;;;;;27.45;33.25;99386.06;5093806;28;20051;-78
2022/08/29 07:47:11;;;;;;;25.70;10.07;;;;;;;27.49;33.03;99381.28;5075947;28;20047;-78
2022/08/29 07:49:38;;;;;;;20.05;9.82;;;;;;;27.57;33.28;99386.94;5093708;28;20082;-78
2022/08/29 07:52:08;;;;;;;;;;;;;;;27.36;33.71;99386.72;5093899;28;20573;-78
2022/08/29 07:54:35;;;;;;;15.63;8.00;;;;;;;27.23;33.77;99389.44;5092577;28;19928;-79
2022/08/29 07:57:02;;;;;;;18.50;8.50;;;;;;;27.07;34.29;99386.16;5093715;28;20051;-79
2022/08/29 07:59:30;;;;;;;31.48;9.20;;;;;;;26.86;34.80;99380.50;5093708;28;20095;-79
2022/08/29 08:01:57;;;;;;;20.05;8.00;;;;;;;26.81;34.63;99391.56;5093344;28;20056;-77
2022/08/29 08:04:25;;;;;;;24.33;8.18;;;;;;;26.86;34.91;99378.69;5093322;28;20060;-78
2022/08/29 08:06:52;;;;;;;15.43;7.50;;;;;;;27.13;34.41;99386.56;5093987;28;20150;-79
2022/08/29 08:09:19;;;;;;;22.67;7.32;;;;;;;27.55;33.75;99387.09;5093467;28;20143;-78
2022/08/29 08:11:46;;;;;;;14.55;6.20;;;;;;;27.77;33.42;99388.16;5093373;28;20511;-78
2022/08/29 08:14:13;;;;;;;22.15;5.90;;;;;;;27.59;33.72;99358.19;5093381;28;20148;-78
2022/08/29 08:16:40;;;;;;;18.92;5.82;;;;;;;27.54;33.89;99384.50;5093337;28;20052;-79
2022/08/29 08:19:12;;;;;;;14.45;6.07;;;;;;;27.39;34.34;99386.50;5093215;28;20048;-77
2022/08/29 08:21:40;;;;;;;21.70;6.05;;;;;;;27.41;34.63;99379.19;5092944;28;20063;-78
2022/08/29 08:24:17;;;;;;;17.58;5.32;;;;;;;27.25;34.77;99349.13;5093514;28;20059;-79
2022/08/29 08:26:47;;;;;;;16.65;5.35;;;;;;;27.52;34.87;99387.28;5075798;28;20048;-79
2022/08/29 08:29:14;;;;;;;17.45;5.55;;;;;;;27.32;34.78;99355.75;5093475;28;20064;-79
2022/08/29 08:31:48;;;;;;;16.63;5.30;;;;;;;27.48;35.10;99388.50;5093402;28;20453;-78
2022/08/29 08:34:16;;;;;;;16.02;4.95;;;;;;;27.45;35.27;99372.66;5093196;28;20055;-77
2022/08/29 08:36:44;;;;;;;18.10;4.90;;;;;;;27.58;35.30;99389.53;5093113;28;20055;-77
2022/08/29 08:39:13;;;;;;;18.15;4.90;;;;;;;27.70;35.31;99389.56;5093107;28;20048;-78
2022/08/29 08:41:49;;;;;;;23.98;5.03;;;;;;;27.55;35.68;99384.41;5092812;28;20058;-77
2022/08/29 08:44:21;;;;;;;18.33;4.78;;;;;;;27.50;35.96;99383.88;5092659;28;20462;-77
2022/08/29 08:46:53;;;;;;;18.48;4.78;;;;;;;27.44;36.00;99376.28;5092532;28;20147;-76
2022/08/29 08:49:43;;;;;;;19.00;5.80;;;;;;;27.45;36.22;99378.00;5092561;28;20052;-78
2022/08/29 08:52:21;;;;;;;22.10;4.93;;;;;;;27.40;36.40;99380.16;5092907;28;20044;-79
2022/08/29 08:54:53;;;;;;;22.27;4.70;;;;;;;27.32;36.52;99402.19;5092790;28;20104;-78
2022/08/29 08:57:21;;;;;;;19.27;5.03;;;;;;;27.29;36.43;99404.22;5092284;28;20392;-78
2022/08/29 08:59:58;;;;;;;17.48;4.32;;;;;;;27.19;36.71;99387.94;5092814;28;20063;-78
2022/08/29 09:03:01;;;;;;;14.43;3.72;;;;;;;27.09;36.74;99389.56;5092529;28;20051;-77
2022/08/29 09:05:47;;;;;;;16.83;4.25;;;;;;;27.22;36.91;99400.28;5095088;28;20051;-76
2022/08/29 09:08:15;;;;;;;16.48;3.85;;;;;;;27.40;36.64;99401.59;5099540;28;20079;-78
2022/08/29 09:10:57;;;;;;;22.73;4.53;;;;;;;27.45;36.46;99395.91;5099162;28;20080;-77
2022/08/29 09:13:49;;;;;;;18.33;4.07;;;;;;;27.49;36.52;99386.66;5098966;28;20479;-78
2022/08/29 09:16:41;;;;;;;18.80;4.03;;;;;;;27.43;36.38;99368.38;5099294;28;20051;-78
2022/08/29 09:19:11;;;;;;;20.40;4.38;;;;;;;27.96;36.09;99401.03;5081173;28;20048;-79
2022/08/29 09:22:04;;;;;;;17.92;3.85;;;;;;;28.27;35.50;99387.97;5098864;28;20139;-78
2022/08/29 09:24:39;;;;;;;16.85;4.38;;;;;;;28.52;34.87;99362.75;5098984;28;20090;-78
2022/08/29 09:27:24;;;;;;;25.02;4.63;;;;;;;28.97;34.84;99385.09;5099456;28;20054;-79
2022/08/29 09:30:06;;;;;;;18.10;4.28;;;;;;;29.27;34.34;99382.75;5099650;28;20048;-79
2022/08/29 09:32:55;;;;;;;14.45;4.18;;;;;;;29.42;33.96;99377.94;5099664;28;20055;-79
2022/08/29 09:35:32;;;;;;;14.18;3.95;;;;;;;29.29;34.01;99395.06;5098698;28;20435;-78
2022/08/29 09:38:05;;;;;;;12.73;4.38;;;;;;;29.25;34.26;99382.88;5099705;28;20499;-79
2022/08/29 09:40:41;;;;;;;23.25;4.47;;;;;;;29.12;34.38;99369.56;5079631;28;20081;-78
2022/08/29 09:43:20;;;;;;;18.45;4.00;;;;;;;29.22;34.67;99390.34;5099347;28;20084;-78
2022/08/29 09:46:10;;;;;;;18.40;4.50;;;;;;;29.33;34.31;99371.50;5099449;28;20047;-79
2022/08/29 09:48:51;;;;;;;62.92;5.90;;;;;;;29.29;34.26;99380.78;5099557;28;20101;-79
2022/08/29 09:51:31;;;;;;;22.10;4.57;;;;;;;29.20;34.36;99374.31;5101834;28;20055;-79
2022/08/29 09:54:21;;;;;;;18.27;4.00;;;;;;;29.11;34.40;99369.72;5082695;28;20139;-78
2022/08/29 09:57:09;;;;;;;30.55;4.60;;;;;;;29.03;34.06;99361.38;5099777;28;20139;-79
2022/08/29 09:59:41;;;;;;;16.67;3.90;;;;;;;29.02;34.16;99370.41;5080436;28;20396;-79
2022/08/29 10:02:20;;;;;;;20.73;4.10;;;;;;;29.03;34.47;99374.81;5081340;28;20052;-78
2022/08/29 10:05:11;;;;;;;21.73;3.97;;;;;;;29.08;33.70;99372.59;5100100;28;20072;-77
2022/08/29 10:07:51;;;;;;;19.67;4.78;;;;;;;28.97;33.44;99373.47;5103490;28;20055;-78
2022/08/29 10:10:24;;;;;;;24.55;4.47;;;;;;;28.95;33.52;99375.44;5101603;28;20062;-80
2022/08/29 10:13:10;;;;;;;19.05;3.75;;;;;;;28.94;33.92;99366.50;5086009;28;20047;-77
2022/08/29 10:15:50;;;;;;;13.30;4.25;;;;;;;28.94;33.80;99381.78;5084140;28;20044;-78
2022/08/29 10:18:35;;;;;;;19.55;4.32;;;;;;;28.94;33.11;99379.09;5075613;28;20048;-78
2022/08/29 10:21:03;;;;;;;38.53;5.22;;;;;;;28.88;33.13;99374.22;5075169;28;20167;-77
2022/08/29 10:23:34;;;;;;;29.27;4.53;;;;;;;28.87;33.10;99368.00;5075162;28;20558;-77
2022/08/29 10:26:25;;;;;;;24.30;4.85;;;;;;;28.82;33.36;99380.94;5074566;28;20059;-75
2022/08/29 10:29:29;;;;;;;21.10;4.78;;;;;;;28.50;34.01;99380.81;5088662;28;20055;-77
2022/08/29 10:32:06;;;;;;;24.98;5.00;;;;;;;28.43;34.40;99388.47;5074989;28;20056;-80
2022/08/29 10:34:51;;;;;;;21.52;4.32;;;;;;;28.49;34.47;99379.97;5074917;28;20052;-80
2022/08/29 10:37:29;;;;;;;20.48;4.50;;;;;;;28.53;34.24;99399.38;5075713;28;20044;-79
2022/08/29 10:40:16;;;;;;;22.80;4.55;;;;;;;28.59;34.36;99389.00;5075072;28;20110;-79
2022/08/29 10:42:44;;;;;;;13.98;3.80;;;;;;;28.54;34.58;99387.66;5074831;28;20183;-78
2022/08/29 10:45:38;;;;;;;15.27;4.00;;;;;;;28.53;34.38;99380.59;5074879;28;20103;-77
2022/08/29 10:48:30;;;;;;;21.48;4.13;;;;;;;28.51;34.52;99390.59;5074790;28;20048;-79
2022/08/29 10:51:03;;;;;;;15.15;3.90;;;;;;;28.59;33.94;99393.53;5056179;28;20467;-77
2022/08/29 10:53:36;;;;;;;23.23;5.15;;;;;;;28.53;34.44;99380.59;5074595;28;20055;-78
2022/08/29 10:56:15;;;;;;;20.02;4.15;;;;;;;28.43;34.74;99403.72;5075476;28;20049;-81
2022/08/29 10:58:50;;;;;;;33.97;5.78;;;;;;;28.38;34.84;99390.66;5074377;28;20064;-80
2022/08/29 11:01:22;;;;;;;24.25;4.35;;;;;;;28.24;35.20;99389.03;5073164;28;20048;-76
2022/08/29 11:03:57;;;;;;;20.02;4.35;;;;;;;28.42;34.79;99402.88;5056122;28;20706;-80
2022/08/29 11:06:30;;;;;;;17.10;4.68;;;;;;;28.49;35.05;99409.50;5073549;28;20044;-76
2022/08/29 11:09:05;;;;;;;21.15;4.30;;;;;;;28.48;35.15;99391.69;5090105;28;20079;-80
2022/08/29 11:11:35;;;;;;;24.92;4.28;;;;;;;28.24;35.19;99393.56;5073554;28;20053;-78
2022/08/29 11:14:11;;;;;;;27.08;4.53;;;;;;;28.10;35.63;99422.31;5073242;28;20151;-79
2022/08/29 11:16:46;;;;;;;20.00;4.18;;;;;;;27.91;36.12;99411.28;5071725;28;20056;-78
2022/08/29 11:19:46;;;;;;;14.00;4.93;;;;;;;28.14;36.05;99415.75;5073881;28;20143;-77
2022/08/29 11:22:20;;;;;;;29.67;5.43;;;;;;;28.28;35.49;99420.03;5084960;28;20416;-78
2022/08/29 11:25:07;;;;;;;17.08;4.45;;;;;;;28.35;35.54;99418.63;5093541;28;20048;-77
2022/08/29 11:27:45;;;;;;;21.70;4.53;;;;;;;28.52;35.30;99370.78;5093233;28;20075;-79
2022/08/29 11:30:22;;;;;;;16.55;4.00;;;;;;;28.53;34.90;99389.50;5074288;28;20117;-78
2022/08/29 11:33:02;;;;;;;17.67;4.38;;;;;;;28.72;34.98;99394.25;5093134;28;20070;-77
2022/08/29 11:36:04;;;;;;;14.73;4.13;;;;;;;28.53;35.14;99426.25;5074612;28;20093;-75
2022/08/29 11:39:12;;;;;;;19.98;4.65;;;;;;;28.45;35.31;99429.50;5093109;28;20056;-76
2022/08/29 11:41:46;;;;;;;21.92;4.68;;;;;;;28.23;35.39;99384.66;5093042;28;20055;-77
2022/08/29 11:44:36;;;;;;;18.65;4.00;;;;;;;28.31;34.79;99400.19;5093303;28;20043;-77
2022/08/29 11:47:45;;;;;;;17.27;4.78;;;;;;;28.28;34.93;99413.84;5093047;28;20052;-77